Time;durP1;ratioP1;P1;durP2;ratioP2;P2;SDS_P1;SDS_P2;PMS_P1;PMS_P2;Temp;Humidity;BMP_temperature;BMP_pressure;BME280_temperature;BME280_humidity;BME280_pressure;Samples;Min_cycle;Max_cycle;Signal;HPM_P1;HPM_P2
2023/09/09 00:01:56;;;;;;;8.20;2.70;;;;;;;22.59;55.10;101351.69;5032895;28;20029;-49
2023/09/09 00:04:22;;;;;;;5.57;3.00;;;;;;;22.31;56.61;101347.63;5032974;28;20037;-47
2023/09/09 00:06:49;;;;;;;5.25;2.90;;;;;;;22.07;57.68;101346.47;5032780;28;20041;-48
2023/09/09 00:09:15;;;;;;;12.23;3.72;;;;;;;22.00;58.12;101348.66;5032661;28;20061;-47
2023/09/09 00:11:41;;;;;;;7.25;3.78;;;;;;;21.64;60.06;101347.72;5032372;28;20071;-46
2023/09/09 00:14:08;;;;;;;12.05;3.60;;;;;;;21.53;60.22;101355.88;5032859;28;20021;-50
2023/09/09 00:16:34;;;;;;;5.55;3.60;;;;;;;21.56;61.31;101349.91;5032620;28;20026;-46
2023/09/09 00:19:02;;;;;;;9.57;3.67;;;;;;;21.53;61.17;101355.06;5032687;28;20053;-49
2023/09/09 00:21:29;;;;;;;8.73;3.90;;;;;;;21.41;61.51;101352.56;5032643;28;20517;-50
2023/09/09 00:23:56;;;;;;;14.27;3.88;;;;;;;21.40;62.08;101359.09;5047680;28;20030;-49
2023/09/09 00:26:22;;;;;;;9.65;3.75;;;;;;;21.33;62.64;101362.06;5032878;28;20501;-45
2023/09/09 00:28:48;;;;;;;14.55;4.15;;;;;;;21.05;64.34;101355.06;5035175;28;20029;-46
2023/09/09 00:31:15;;;;;;;8.52;4.35;;;;;;;20.91;64.92;101363.97;5036919;28;20049;-48
2023/09/09 00:33:41;;;;;;;9.50;3.38;;;;;;;20.87;64.72;101363.66;5036255;28;20026;-47
2023/09/09 00:36:07;;;;;;;7.75;4.10;;;;;;;20.71;65.42;101360.03;5036348;28;20471;-49
2023/09/09 00:38:34;;;;;;;7.22;4.03;;;;;;;20.46;66.50;101365.25;5036317;28;20100;-47
2023/09/09 00:41:13;;;;;;;7.05;3.60;;;;;;;20.50;67.18;101356.31;5036622;28;20021;-49
2023/09/09 00:43:40;;;;;;;4.35;3.30;;;;;;;20.49;67.38;101359.31;5052619;28;20022;-47
2023/09/09 00:46:08;;;;;;;5.93;3.50;;;;;;;20.21;68.16;101355.78;5036217;28;20470;-50
2023/09/09 00:48:36;;;;;;;6.13;3.95;;;;;;;20.21;69.13;101352.22;5036220;28;20038;-48
2023/09/09 00:51:02;;;;;;;5.35;3.00;;;;;;;20.22;68.73;101345.72;5036757;28;20493;-48
2023/09/09 00:53:30;;;;;;;7.32;3.60;;;;;;;20.00;69.00;101349.31;5036503;28;20064;-48
2023/09/09 00:55:57;;;;;;;4.10;3.13;;;;;;;19.81;70.86;101350.72;5035663;28;20025;-48
2023/09/09 00:58:23;;;;;;;4.40;3.13;;;;;;;20.05;69.78;101351.28;5035799;28;20478;-45
2023/09/09 01:00:49;;;;;;;6.57;3.40;;;;;;;19.79;70.51;101352.88;5036112;28;20083;-49
2023/09/09 01:03:16;;;;;;;5.75;2.75;;;;;;;19.52;71.85;101352.81;5036154;28;20025;-49
2023/09/09 01:05:42;;;;;;;8.43;2.80;;;;;;;19.37;72.05;101356.16;5036043;28;20029;-49
2023/09/09 01:08:08;;;;;;;5.13;3.15;;;;;;;19.28;73.02;101368.53;5035948;28;20326;-50
2023/09/09 01:10:34;;;;;;;5.43;3.05;;;;;;;19.10;73.87;101363.38;5035583;28;20537;-46
2023/09/09 01:13:01;;;;;;;8.70;3.08;;;;;;;18.89;74.68;101354.13;5035511;28;20088;-49
2023/09/09 01:15:27;;;;;;;4.82;3.03;;;;;;;18.72;75.21;101365.81;5035761;28;20501;-48
2023/09/09 01:17:54;;;;;;;4.90;2.50;;;;;;;18.57;75.52;101364.72;5035771;28;20044;-47
2023/09/09 01:20:24;;;;;;;6.13;2.90;;;;;;;18.69;76.19;101366.31;5035927;28;20031;-48
2023/09/09 01:22:51;;;;;;;4.88;2.90;;;;;;;18.42;76.99;101351.72;5035570;28;20056;-49
2023/09/09 01:25:17;;;;;;;3.80;2.58;;;;;;;18.36;77.04;101360.84;5035702;28;20099;-46
2023/09/09 01:27:43;;;;;;;6.18;3.10;;;;;;;18.20;78.48;101355.16;5035090;28;20549;-48
2023/09/09 01:30:13;;;;;;;5.93;3.40;;;;;;;18.19;78.94;101352.69;5017482;28;20362;-46
2023/09/09 01:32:40;;;;;;;3.97;2.80;;;;;;;17.99;79.86;101350.47;5035891;28;20079;-49
2023/09/09 01:35:06;;;;;;;5.07;3.22;;;;;;;17.82;80.92;101349.56;5035445;28;20465;-45
2023/09/09 01:37:33;;;;;;;5.55;3.47;;;;;;;17.71;81.72;101358.53;5035200;28;20105;-49
2023/09/09 01:40:09;;;;;;;5.18;4.03;;;;;;;17.84;81.27;101353.69;5034084;28;20165;-46
2023/09/09 01:42:37;;;;;;;6.38;4.85;;;;;;;17.61;81.58;101359.97;5034842;28;20026;-46
2023/09/09 01:45:04;;;;;;;6.00;4.70;;;;;;;17.69;81.08;101373.13;5035020;28;20473;-46
2023/09/09 01:47:30;;;;;;;7.80;4.63;;;;;;;17.64;82.06;101370.31;5034907;28;20354;-47
2023/09/09 01:49:56;;;;;;;5.22;4.38;;;;;;;17.46;82.36;101367.78;5035057;28;20048;-46
2023/09/09 01:52:23;;;;;;;6.07;4.43;;;;;;;17.50;82.41;101368.97;5035744;28;20465;-45
2023/09/09 01:54:49;;;;;;;4.63;4.05;;;;;;;17.35;83.76;101371.34;5034784;28;20022;-45
2023/09/09 01:57:19;;;;;;;9.32;4.68;;;;;;;17.28;83.86;101368.75;5035079;28;20331;-45
2023/09/09 01:59:45;;;;;;;4.55;4.00;;;;;;;17.26;84.08;101378.97;5034763;28;20060;-48
2023/09/09 02:02:15;;;;;;;4.50;4.10;;;;;;;17.11;84.66;101365.13;5035464;28;20079;-47
2023/09/09 02:04:43;;;;;;;6.22;4.45;;;;;;;17.22;84.59;101367.00;5034788;28;20117;-47
2023/09/09 02:07:09;;;;;;;4.10;3.70;;;;;;;17.07;84.98;101364.78;5034806;28;20075;-47
2023/09/09 02:09:35;;;;;;;5.78;4.25;;;;;;;16.99;85.68;101367.84;5016904;28;20359;-45
2023/09/09 02:12:04;;;;;;;5.50;4.45;;;;;;;16.89;86.33;101376.53;5034535;28;20029;-46
2023/09/09 02:14:31;;;;;;;5.88;4.22;;;;;;;16.89;86.13;101378.44;5034575;28;20021;-47
2023/09/09 02:16:57;;;;;;;4.93;3.85;;;;;;;16.98;85.60;101374.28;5034625;28;20037;-45
2023/09/09 02:19:24;;;;;;;8.32;3.75;;;;;;;16.79;86.17;101376.31;5034733;28;20053;-48
2023/09/09 02:21:51;;;;;;;4.45;3.72;;;;;;;16.71;86.26;101371.25;5034486;28;20481;-44
2023/09/09 02:24:17;;;;;;;5.63;3.75;;;;;;;16.52;87.06;101366.94;5034442;28;20052;-47
2023/09/09 02:26:43;;;;;;;4.70;3.00;;;;;;;16.57;87.53;101364.38;5034631;28;20409;-45
2023/09/09 02:29:10;;;;;;;3.58;3.28;;;;;;;16.45;88.20;101372.47;5034615;28;20466;-44
2023/09/09 02:31:36;;;;;;;4.90;3.05;;;;;;;16.50;88.04;101364.50;5034299;28;20061;-45
2023/09/09 02:34:02;;;;;;;5.65;3.13;;;;;;;16.40;88.60;101375.03;5034037;28;20409;-44
2023/09/09 02:36:28;;;;;;;4.30;3.38;;;;;;;16.41;88.69;101373.16;5034142;28;20065;-44
2023/09/09 02:38:55;;;;;;;8.15;3.28;;;;;;;16.49;88.82;101375.50;5034160;28;20030;-47
2023/09/09 02:41:21;;;;;;;4.22;3.17;;;;;;;16.46;88.90;101384.09;5034257;28;20053;-45
2023/09/09 02:43:47;;;;;;;7.30;3.13;;;;;;;16.37;89.76;101386.28;5033783;28;20409;-48
2023/09/09 02:46:13;;;;;;;4.18;3.20;;;;;;;16.32;90.08;101383.47;5033948;28;20528;-51
2023/09/09 02:48:40;;;;;;;5.38;2.92;;;;;;;16.46;89.62;101381.38;5034040;28;20064;-52
2023/09/09 02:51:06;;;;;;;4.68;3.13;;;;;;;16.58;88.68;101387.63;5033557;28;20462;-54
2023/09/09 02:53:32;;;;;;;5.65;3.53;;;;;;;16.48;88.78;101388.19;5034076;28;20489;-53
2023/09/09 02:55:58;;;;;;;4.00;2.80;;;;;;;16.56;88.13;101406.78;5033946;28;20105;-52
2023/09/09 02:58:25;;;;;;;4.55;2.70;;;;;;;16.57;88.36;101391.41;5033778;28;20454;-49
2023/09/09 03:00:51;;;;;;;3.67;3.20;;;;;;;16.57;88.73;101397.63;5033677;28;20022;-48
2023/09/09 03:03:20;;;;;;;6.78;3.78;;;;;;;16.52;89.13;101394.78;5033771;28;20033;-52
2023/09/09 03:05:46;;;;;;;6.32;3.53;;;;;;;16.39;89.84;101403.13;5033714;28;20022;-47
2023/09/09 03:08:12;;;;;;;7.15;3.78;;;;;;;16.38;90.45;101409.56;5033590;28;20040;-49
2023/09/09 03:10:39;;;;;;;5.63;3.70;;;;;;;16.42;90.25;101410.75;5033552;28;20516;-47
2023/09/09 03:13:05;;;;;;;6.43;3.67;;;;;;;16.36;90.62;101408.97;5033717;28;20026;-49
2023/09/09 03:15:31;;;;;;;7.53;4.32;;;;;;;16.19;92.20;101416.06;5016232;28;20401;-51
2023/09/09 03:17:57;;;;;;;5.93;3.65;;;;;;;16.37;90.97;101426.81;5033467;28;20032;-51
2023/09/09 03:20:24;;;;;;;5.88;3.75;;;;;;;16.48;90.79;101423.31;5033474;28;20030;-48
2023/09/09 03:22:50;;;;;;;7.95;3.90;;;;;;;16.43;91.18;101427.78;5033566;28;20565;-46
2023/09/09 03:25:17;;;;;;;4.80;3.65;;;;;;;16.32;91.18;101424.84;5033306;28;20071;-49
2023/09/09 03:27:43;;;;;;;5.70;4.13;;;;;;;16.36;91.64;101428.69;5033659;28;20060;-51
2023/09/09 03:30:12;;;;;;;6.70;4.18;;;;;;;16.39;91.07;101423.91;5033188;28;20049;-48
2023/09/09 03:32:38;;;;;;;8.23;3.97;;;;;;;16.30;91.23;101432.31;5033191;28;20061;-49
2023/09/09 03:35:06;;;;;;;8.50;4.00;;;;;;;16.22;92.02;101434.53;5033115;28;20516;-49
2023/09/09 03:37:32;;;;;;;8.13;4.15;;;;;;;16.16;92.10;101440.81;5033191;28;20037;-50
2023/09/09 03:39:58;;;;;;;8.10;4.28;;;;;;;16.29;91.07;101443.38;5033106;28;20025;-46
2023/09/09 03:42:25;;;;;;;10.90;4.80;;;;;;;16.19;92.01;101443.09;5033133;28;20100;-50
2023/09/09 03:44:52;;;;;;;9.13;4.43;;;;;;;16.31;92.02;101447.47;5033077;28;20110;-50
2023/09/09 03:47:19;;;;;;;10.27;4.57;;;;;;;16.25;91.62;101448.38;5032802;28;20393;-51
2023/09/09 03:49:45;;;;;;;9.18;4.45;;;;;;;16.27;91.37;101451.69;5033353;28;20453;-49
2023/09/09 03:52:11;;;;;;;9.35;4.72;;;;;;;16.10;92.45;101456.91;5033003;28;20485;-47
2023/09/09 03:54:38;;;;;;;6.93;4.18;;;;;;;16.18;92.37;101463.03;5033252;28;20037;-48
2023/09/09 03:57:04;;;;;;;9.35;4.57;;;;;;;16.20;92.03;101461.75;5033094;28;20033;-48
2023/09/09 03:59:31;;;;;;;7.93;4.50;;;;;;;16.20;91.70;101466.34;5033176;28;20105;-47
2023/09/09 04:01:58;;;;;;;10.88;5.32;;;;;;;16.10;92.85;101467.72;5032392;28;20035;-49
2023/09/09 04:04:24;;;;;;;7.32;4.78;;;;;;;16.06;93.25;101466.50;5033181;28;20494;-47
2023/09/09 04:06:50;;;;;;;9.55;5.22;;;;;;;15.98;93.52;101474.09;5033042;28;20030;-50
2023/09/09 04:09:22;;;;;;;10.52;4.72;;;;;;;16.02;93.17;101473.41;5032775;28;20026;-47
2023/09/09 04:11:48;;;;;;;8.45;5.03;;;;;;;16.19;92.34;101480.91;5033106;28;20025;-47
2023/09/09 04:14:15;;;;;;;8.15;5.10;;;;;;;15.91;93.57;101481.44;5032754;28;20025;-47
2023/09/09 04:16:41;;;;;;;8.02;5.20;;;;;;;15.83;94.13;101475.31;5032910;28;20030;-51
2023/09/09 04:19:07;;;;;;;7.70;4.97;;;;;;;15.93;93.85;101490.13;5032627;28;20417;-50
2023/09/09 04:21:33;;;;;;;13.07;5.95;;;;;;;15.90;94.05;101486.03;5032690;28;20432;-48
2023/09/09 04:24:00;;;;;;;14.18;5.43;;;;;;;16.00;93.12;101489.03;5032686;28;20100;-48
2023/09/09 04:26:26;;;;;;;9.63;5.45;;;;;;;16.00;92.93;101489.03;5032578;28;20026;-50
2023/09/09 04:28:53;;;;;;;11.27;5.78;;;;;;;15.77;94.69;101489.72;5032650;28;20076;-47
2023/09/09 04:31:19;;;;;;;13.82;6.57;;;;;;;15.86;94.46;101486.69;5032757;28;20029;-48
2023/09/09 04:33:45;;;;;;;9.52;5.72;;;;;;;15.87;94.65;101491.88;5033070;28;20359;-51
2023/09/09 04:36:11;;;;;;;13.90;6.05;;;;;;;15.74;96.26;101486.63;5032859;28;20021;-47
2023/09/09 04:38:38;;;;;;;15.63;6.32;;;;;;;15.80;96.29;101485.72;5032753;28;20036;-48
2023/09/09 04:41:04;;;;;;;11.05;5.45;;;;;;;15.84;95.77;101495.84;5032701;28;20026;-48
2023/09/09 04:43:30;;;;;;;16.33;6.00;;;;;;;15.92;94.66;101497.41;5032490;28;20029;-51
2023/09/09 04:45:56;;;;;;;14.35;6.63;;;;;;;15.87;94.62;101499.97;5032510;28;20033;-49
2023/09/09 04:48:23;;;;;;;13.48;6.15;;;;;;;15.80;95.17;101501.91;5032283;28;20037;-47
2023/09/09 04:50:49;;;;;;;14.88;6.13;;;;;;;15.78;96.02;101509.44;5032415;28;20057;-51
2023/09/09 04:53:15;;;;;;;12.98;6.65;;;;;;;15.79;96.98;101502.97;5032428;28;20052;-50
2023/09/09 04:55:41;;;;;;;16.02;6.22;;;;;;;15.82;97.04;101508.75;5032783;28;20140;-52
2023/09/09 04:58:10;;;;;;;15.50;5.70;;;;;;;15.66;98.28;101509.34;5032510;28;20061;-50
2023/09/09 05:00:36;;;;;;;13.07;5.53;;;;;;;15.67;98.51;101511.00;5032444;28;20068;-47
2023/09/09 05:03:02;;;;;;;11.75;5.65;;;;;;;15.85;97.36;101507.47;5032640;28;20025;-49
2023/09/09 05:05:29;;;;;;;16.27;6.03;;;;;;;15.80;97.21;101516.25;5032665;28;20021;-51
2023/09/09 05:07:55;;;;;;;14.05;6.07;;;;;;;15.83;96.46;101513.09;5032229;28;20513;-48
2023/09/09 05:10:22;;;;;;;15.50;5.50;;;;;;;15.77;96.77;101515.88;5032320;28;20060;-48
2023/09/09 05:12:49;;;;;;;12.68;5.22;;;;;;;15.94;95.93;101516.09;5032219;28;20025;-48
2023/09/09 05:15:16;;;;;;;19.63;6.18;;;;;;;15.70;97.25;101515.09;5035770;28;20018;-48
2023/09/09 05:17:43;;;;;;;15.40;6.53;;;;;;;15.70;97.17;101509.69;5035786;28;20025;-46
2023/09/09 05:20:10;;;;;;;12.65;6.25;;;;;;;15.67;96.99;101515.56;5035856;28;20470;-47
2023/09/09 05:22:37;;;;;;;13.25;5.03;;;;;;;15.89;95.80;101513.25;5035698;28;20053;-47
2023/09/09 05:25:03;;;;;;;17.92;6.35;;;;;;;15.95;94.79;101515.06;5035727;28;20049;-46
2023/09/09 05:27:29;;;;;;;12.68;6.25;;;;;;;15.80;95.51;101531.59;5035537;28;20053;-50
2023/09/09 05:29:56;;;;;;;13.15;6.35;;;;;;;15.78;94.72;101523.75;5035503;28;20107;-46
2023/09/09 05:32:22;;;;;;;15.88;6.25;;;;;;;15.88;95.14;101517.84;5017783;28;20026;-48
2023/09/09 05:34:48;;;;;;;12.65;6.30;;;;;;;15.81;94.81;101517.88;5035334;28;20045;-49
2023/09/09 05:37:15;;;;;;;13.45;6.05;;;;;;;15.81;95.57;101512.47;5035419;28;20045;-49
2023/09/09 05:39:41;;;;;;;15.82;6.60;;;;;;;15.79;95.13;101508.38;5035333;28;20465;-46
2023/09/09 05:42:07;;;;;;;12.63;7.07;;;;;;;15.87;94.37;101504.53;5035486;28;20543;-47
2023/09/09 05:44:37;;;;;;;12.07;5.88;;;;;;;15.96;93.67;101505.91;5035193;28;20025;-46
2023/09/09 05:47:06;;;;;;;11.57;5.95;;;;;;;15.78;93.93;101502.16;5035251;28;20021;-46
2023/09/09 05:49:33;;;;;;;16.92;6.47;;;;;;;15.77;93.91;101516.69;5035201;28;20033;-47
2023/09/09 05:51:59;;;;;;;14.20;6.65;;;;;;;15.86;93.40;101513.69;5035201;28;20093;-46
2023/09/09 05:54:25;;;;;;;10.90;5.97;;;;;;;15.74;94.16;101513.63;5035170;28;20025;-46
2023/09/09 05:56:51;;;;;;;19.63;6.43;;;;;;;15.76;94.45;101515.03;5035413;28;20025;-46
2023/09/09 05:59:18;;;;;;;11.82;6.22;;;;;;;15.72;94.51;101518.41;5034873;28;20061;-46
2023/09/09 06:01:44;;;;;;;17.52;6.18;;;;;;;15.75;94.44;101512.56;5035251;28;20097;-46
2023/09/09 06:04:10;;;;;;;11.20;6.15;;;;;;;15.71;94.66;101509.50;5034990;28;20481;-47
2023/09/09 06:06:37;;;;;;;15.10;6.03;;;;;;;15.66;94.62;101512.03;5034950;28;20049;-47
2023/09/09 06:09:03;;;;;;;15.57;6.15;;;;;;;15.81;94.24;101517.06;5050068;28;20021;-46
2023/09/09 06:11:30;;;;;;;14.68;5.72;;;;;;;15.83;94.00;101514.97;5034743;28;20049;-46
2023/09/09 06:13:57;;;;;;;9.60;5.25;;;;;;;15.80;93.47;101515.41;5034642;28;20028;-49
2023/09/09 06:16:23;;;;;;;15.40;6.57;;;;;;;15.67;94.55;101516.38;5034889;28;20025;-46
2023/09/09 06:18:49;;;;;;;12.55;5.85;;;;;;;15.72;94.15;101513.84;5034578;28;20048;-46
2023/09/09 06:21:15;;;;;;;10.13;5.65;;;;;;;15.59;95.09;101514.75;5034651;28;20034;-47
2023/09/09 06:23:42;;;;;;;14.27;6.05;;;;;;;15.69;94.52;101513.47;5034604;28;20029;-46
2023/09/09 06:26:08;;;;;;;11.30;5.47;;;;;;;15.73;94.26;101504.69;5034459;28;20026;-46
2023/09/09 06:28:34;;;;;;;15.50;6.43;;;;;;;15.54;95.49;101509.19;5049898;28;20029;-49
2023/09/09 06:31:01;;;;;;;14.55;6.30;;;;;;;15.50;95.74;101521.50;5034501;28;20465;-50
2023/09/09 06:33:27;;;;;;;14.18;5.70;;;;;;;15.48;95.63;101506.56;5034385;28;20022;-49
2023/09/09 06:35:54;;;;;;;11.15;4.88;;;;;;;15.62;95.18;101505.41;5034149;28;20175;-49
2023/09/09 06:38:21;;;;;;;11.43;5.72;;;;;;;15.52;95.83;101505.91;5034345;28;20029;-49
2023/09/09 06:40:48;;;;;;;10.40;5.28;;;;;;;15.61;95.22;101505.63;5034155;28;20106;-49
2023/09/09 06:43:21;;;;;;;16.98;6.20;;;;;;;15.58;94.66;101505.00;5034364;28;20108;-46
2023/09/09 06:45:48;;;;;;;15.35;6.57;;;;;;;15.36;96.64;101506.47;5034073;28;20029;-46
2023/09/09 06:48:18;;;;;;;12.40;6.30;;;;;;;15.39;96.35;101502.53;5033886;28;20036;-49
2023/09/09 06:50:47;;;;;;;15.25;6.90;;;;;;;15.34;96.73;101499.66;5034100;28;20049;-50
2023/09/09 06:53:15;;;;;;;16.13;6.25;;;;;;;15.30;96.83;101500.09;5033833;28;20036;-49
2023/09/09 06:55:44;;;;;;;13.05;6.88;;;;;;;15.34;96.51;101505.06;5034085;28;20075;-49
2023/09/09 06:58:12;;;;;;;21.85;6.20;;;;;;;15.30;96.47;101493.88;5034004;28;20021;-49
2023/09/09 07:00:39;;;;;;;16.90;7.10;;;;;;;15.20;98.39;101498.94;5033957;28;20026;-50
2023/09/09 07:03:07;;;;;;;12.88;6.05;;;;;;;15.44;97.06;101495.41;5033638;28;20033;-48
2023/09/09 07:05:34;;;;;;;17.65;6.88;;;;;;;15.51;96.25;101498.88;5034454;28;20025;-50
2023/09/09 07:08:00;;;;;;;16.13;6.45;;;;;;;15.42;97.10;101494.78;5033271;28;20044;-51
2023/09/09 07:10:26;;;;;;;12.50;5.68;;;;;;;15.43;96.44;101499.13;5033453;28;20412;-49
2023/09/09 07:12:53;;;;;;;12.82;6.82;;;;;;;15.39;96.97;101495.25;5033918;28;20052;-47
2023/09/09 07:15:20;;;;;;;16.90;6.80;;;;;;;15.23;98.19;101502.03;5033517;28;20104;-47
2023/09/09 07:17:46;;;;;;;18.77;6.90;;;;;;;15.21;98.34;101497.88;5033501;28;20037;-50
2023/09/09 07:20:13;;;;;;;15.80;6.47;;;;;;;15.34;97.01;101499.66;5033405;28;20097;-46
2023/09/09 07:22:39;;;;;;;10.77;5.55;;;;;;;15.46;97.16;101493.31;5033356;28;20034;-47
2023/09/09 07:25:06;;;;;;;16.60;6.15;;;;;;;15.42;96.65;101502.06;5033656;28;20021;-48
2023/09/09 07:27:33;;;;;;;14.85;6.55;;;;;;;15.36;96.85;101487.59;5033296;28;20017;-49
2023/09/09 07:29:59;;;;;;;19.50;7.95;;;;;;;15.19;98.04;101500.81;5033192;28;20026;-48
2023/09/09 07:32:26;;;;;;;25.35;6.72;;;;;;;15.39;97.20;101491.72;5033361;28;20025;-46
2023/09/09 07:34:52;;;;;;;14.98;5.80;;;;;;;15.29;97.72;101498.44;5015479;28;20046;-46
2023/09/09 07:37:19;;;;;;;16.40;5.75;;;;;;;15.21;98.18;101498.75;5033133;28;20125;-50
2023/09/09 07:39:46;;;;;;;15.00;6.03;;;;;;;15.41;96.88;101497.72;5033083;28;20021;-46
2023/09/09 07:42:16;;;;;;;16.05;7.00;;;;;;;15.40;96.14;101496.91;5033332;28;20029;-47
2023/09/09 07:44:43;;;;;;;18.23;6.10;;;;;;;15.38;96.93;101501.69;5033578;28;20038;-50
2023/09/09 07:47:09;;;;;;;20.02;7.03;;;;;;;15.33;96.76;101498.84;5015270;28;20334;-46
2023/09/09 07:49:36;;;;;;;12.73;6.10;;;;;;;15.47;96.44;101496.81;5032830;28;20032;-46
2023/09/09 07:52:03;;;;;;;10.90;6.28;;;;;;;15.47;96.54;101496.81;5033217;28;20076;-46
2023/09/09 07:54:30;;;;;;;18.38;7.22;;;;;;;15.40;96.05;101501.47;5032967;28;20033;-49
2023/09/09 07:56:58;;;;;;;13.63;6.30;;;;;;;15.40;95.92;101496.91;5033054;28;20036;-46
2023/09/09 07:59:28;;;;;;;16.20;6.82;;;;;;;15.44;95.96;101489.19;5032957;28;20053;-46
2023/09/09 08:01:54;;;;;;;14.55;6.75;;;;;;;15.34;96.16;101502.34;5032750;28;20416;-46
2023/09/09 08:04:21;;;;;;;15.68;6.63;;;;;;;15.38;96.17;101501.69;5032914;28;20469;-46
2023/09/09 08:06:48;;;;;;;14.18;6.53;;;;;;;15.33;96.37;101498.84;5032850;28;20026;-45
2023/09/09 08:09:15;;;;;;;12.15;6.50;;;;;;;15.30;96.24;101496.56;5032789;28;20037;-47
2023/09/09 08:11:41;;;;;;;23.25;7.70;;;;;;;15.22;97.34;101499.56;5032700;28;20017;-46
2023/09/09 08:14:07;;;;;;;14.98;6.90;;;;;;;15.27;97.08;101505.94;5032711;28;20022;-47
2023/09/09 08:16:33;;;;;;;17.05;6.93;;;;;;;15.41;95.69;101511.22;5032607;28;20025;-50
2023/09/09 08:19:00;;;;;;;12.82;5.75;;;;;;;15.31;96.83;101511.69;5032663;28;20049;-46
2023/09/09 08:21:26;;;;;;;16.00;5.95;;;;;;;15.23;96.55;101509.28;5032620;28;20029;-49
2023/09/09 08:23:53;;;;;;;15.50;6.50;;;;;;;15.27;96.82;101510.50;5032890;28;20099;-46
2023/09/09 08:26:19;;;;;;;20.67;6.45;;;;;;;15.19;96.89;101508.91;5032610;28;20029;-50
2023/09/09 08:28:45;;;;;;;11.65;5.93;;;;;;;15.27;96.40;101499.72;5032483;28;20026;-46
2023/09/09 08:31:12;;;;;;;14.55;6.88;;;;;;;15.30;96.02;101508.19;5032719;28;20048;-53
2023/09/09 08:33:39;;;;;;;14.50;6.13;;;;;;;15.14;96.77;101502.50;5032370;28;20072;-46
2023/09/09 08:36:05;;;;;;;16.48;6.25;;;;;;;15.20;96.12;101507.84;5032273;28;20076;-45
2023/09/09 08:38:31;;;;;;;21.33;6.82;;;;;;;15.20;96.95;101501.63;5032461;28;20385;-46
2023/09/09 08:41:04;;;;;;;10.63;6.18;;;;;;;15.12;98.59;101504.63;5032471;28;20033;-46
2023/09/09 08:43:49;;;;;;;16.70;7.65;;;;;;;15.07;98.76;101515.22;5032464;28;20091;-46
2023/09/09 08:46:17;;;;;;;16.63;6.32;;;;;;;15.04;98.86;101508.38;5032422;28;20033;-47
2023/09/09 08:48:44;;;;;;;18.80;7.03;;;;;;;15.07;98.85;101504.44;5033181;28;20036;-46
2023/09/09 08:51:16;;;;;;;15.68;7.32;;;;;;;14.96;100.00;101500.59;5036368;28;20025;-46
2023/09/09 08:53:44;;;;;;;17.48;7.43;;;;;;;14.96;100.00;101505.97;5036470;28;20029;-46
2023/09/09 08:56:15;;;;;;;17.00;5.82;;;;;;;15.08;99.68;101515.00;5036226;28;20026;-46
2023/09/09 08:58:42;;;;;;;15.43;6.65;;;;;;;15.06;100.00;101503.63;5036811;28;20075;-47
2023/09/09 09:01:09;;;;;;;14.25;7.40;;;;;;;14.95;100.00;101513.25;5036588;28;20112;-45
2023/09/09 09:03:36;;;;;;;17.90;7.47;;;;;;;14.96;99.83;101501.41;5036088;28;20386;-47
2023/09/09 09:06:04;;;;;;;15.98;6.82;;;;;;;14.99;100.00;101502.81;5035813;28;20032;-48
2023/09/09 09:08:31;;;;;;;15.48;6.47;;;;;;;15.03;100.00;101493.25;5035645;28;20437;-46
2023/09/09 09:10:59;;;;;;;17.40;7.57;;;;;;;15.08;99.72;101503.41;5035830;28;20466;-47
2023/09/09 09:13:25;;;;;;;15.77;6.07;;;;;;;15.12;99.70;101504.63;5035835;28;20026;-46
2023/09/09 09:15:52;;;;;;;14.18;7.00;;;;;;;15.02;99.57;101503.22;5035806;28;20048;-50
2023/09/09 09:18:18;;;;;;;15.68;7.20;;;;;;;15.09;99.26;101496.94;5035733;28;20146;-46
2023/09/09 09:20:44;;;;;;;18.20;6.70;;;;;;;15.09;99.98;101499.66;5035685;28;20033;-47
2023/09/09 09:23:12;;;;;;;14.75;6.93;;;;;;;15.16;99.11;101498.56;5035604;28;20037;-48
2023/09/09 09:25:46;;;;;;;13.40;6.68;;;;;;;15.07;99.61;101493.66;5035562;28;20034;-45
2023/09/09 09:28:14;;;;;;;17.60;6.72;;;;;;;15.00;99.80;101494.53;5035627;28;20107;-45
2023/09/09 09:30:41;;;;;;;14.95;6.90;;;;;;;15.13;99.72;101498.16;5035490;28;20029;-45
2023/09/09 09:33:08;;;;;;;16.83;6.70;;;;;;;15.07;100.00;101499.88;5035389;28;20040;-46
2023/09/09 09:35:38;;;;;;;21.88;7.65;;;;;;;15.15;99.64;101498.78;5034996;28;20052;-45
2023/09/09 09:38:06;;;;;;;18.98;7.70;;;;;;;14.98;99.77;101502.00;5036221;28;20036;-46
2023/09/09 09:40:33;;;;;;;24.75;7.65;;;;;;;14.95;100.00;101493.56;5036102;28;20405;-46
2023/09/09 09:42:59;;;;;;;12.48;6.72;;;;;;;14.95;100.00;101498.94;5035524;28;20028;-46
2023/09/09 09:45:28;;;;;;;15.35;6.90;;;;;;;14.96;100.00;101500.59;5035291;28;20474;-46
2023/09/09 09:47:55;;;;;;;15.43;7.13;;;;;;;14.93;100.00;101507.22;5035118;28;20493;-46
2023/09/09 09:50:35;;;;;;;21.35;7.30;;;;;;;15.07;100.00;101490.97;5035242;28;20036;-49
2023/09/09 09:53:04;;;;;;;12.85;6.38;;;;;;;14.96;100.00;101496.03;5035128;28;20026;-46
2023/09/09 09:55:32;;;;;;;17.33;7.07;;;;;;;15.03;100.00;101499.47;5035114;28;20052;-47
2023/09/09 09:58:01;;;;;;;16.80;6.88;;;;;;;15.09;99.69;101492.38;5034866;28;20053;-46
2023/09/09 10:00:28;;;;;;;15.90;6.65;;;;;;;15.10;99.36;101498.59;5033926;28;20032;-46
2023/09/09 10:02:59;;;;;;;15.30;6.85;;;;;;;15.09;99.59;101500.47;5034985;28;20026;-50
2023/09/09 10:05:28;;;;;;;16.25;7.07;;;;;;;15.20;99.31;101498.94;5034585;28;20036;-47
2023/09/09 10:08:06;;;;;;;17.80;6.78;;;;;;;15.21;99.20;101496.03;5034613;28;20083;-50
2023/09/09 10:10:35;;;;;;;12.60;6.55;;;;;;;15.27;99.54;101499.72;5034787;28;20022;-47
2023/09/09 10:13:01;;;;;;;15.70;6.53;;;;;;;15.21;99.28;101500.56;5034915;28;20014;-46
2023/09/09 10:15:30;;;;;;;14.50;6.63;;;;;;;15.29;99.33;101503.00;5034725;28;20025;-46
2023/09/09 10:17:59;;;;;;;24.75;7.85;;;;;;;15.10;100.00;101499.41;5034612;28;20037;-46
2023/09/09 10:20:26;;;;;;;15.27;7.60;;;;;;;15.20;99.54;101498.94;5049765;28;20025;-46
2023/09/09 10:22:59;;;;;;;18.55;7.55;;;;;;;15.12;99.76;101499.22;5034845;28;20326;-46
2023/09/09 10:25:32;;;;;;;20.90;6.85;;;;;;;15.27;99.69;101494.34;5035368;28;20055;-46
2023/09/09 10:28:00;;;;;;;14.15;6.45;;;;;;;15.34;99.50;101502.34;5016593;28;20033;-47
2023/09/09 10:30:28;;;;;;;14.60;7.53;;;;;;;15.24;99.81;101505.53;5034426;28;20097;-48
2023/09/09 10:32:55;;;;;;;18.05;6.75;;;;;;;15.16;100.00;101497.75;5034126;28;20029;-45
2023/09/09 10:35:24;;;;;;;16.90;7.38;;;;;;;15.27;99.83;101505.94;5034120;28;20041;-50
2023/09/09 10:37:51;;;;;;;19.77;7.70;;;;;;;15.29;99.51;101501.13;5016519;28;20128;-48
2023/09/09 10:40:18;;;;;;;23.15;7.65;;;;;;;15.28;98.90;101501.38;5034468;28;20028;-47
2023/09/09 10:42:45;;;;;;;20.35;7.80;;;;;;;15.23;99.24;101509.28;5034254;28;20028;-49
2023/09/09 10:45:32;;;;;;;19.02;7.70;;;;;;;15.29;99.52;101511.09;5034367;28;20072;-47
2023/09/09 10:48:03;;;;;;;23.58;7.88;;;;;;;15.27;99.83;101507.81;5033996;28;20033;-46
2023/09/09 10:50:51;;;;;;;15.48;7.10;;;;;;;15.32;100.00;101516.03;5033935;28;20029;-49
2023/09/09 10:53:21;;;;;;;14.18;7.03;;;;;;;15.24;100.00;101517.16;5033722;28;20040;-49
2023/09/09 10:55:52;;;;;;;19.20;6.82;;;;;;;15.18;100.00;101511.81;5033970;28;20060;-50
2023/09/09 10:58:20;;;;;;;13.05;6.10;;;;;;;15.24;99.61;101510.94;5034263;28;20131;-51
2023/09/09 11:00:48;;;;;;;15.30;6.82;;;;;;;15.36;98.88;101517.25;5034177;28;20026;-49
2023/09/09 11:03:29;;;;;;;19.77;6.80;;;;;;;15.49;98.68;101514.47;5034076;28;20100;-51
2023/09/09 11:06:02;;;;;;;15.93;6.97;;;;;;;15.39;98.88;101521.41;5015921;28;20021;-50
2023/09/09 11:08:35;;;;;;;13.20;6.75;;;;;;;15.46;98.62;101530.25;5033713;28;20042;-46
2023/09/09 11:11:09;;;;;;;15.07;7.50;;;;;;;15.45;98.11;101529.44;5033449;28;20022;-49
2023/09/09 11:13:44;;;;;;;12.43;6.90;;;;;;;15.42;98.61;101534.44;5033505;28;20091;-47
2023/09/09 11:16:35;;;;;;;16.23;6.63;;;;;;;15.48;98.16;101528.97;5033571;28;20029;-50
2023/09/09 11:19:08;;;;;;;20.25;7.78;;;;;;;15.44;98.27;101526.97;5033724;28;20135;-50
2023/09/09 11:21:37;;;;;;;10.38;6.43;;;;;;;15.38;98.14;101528.69;5033422;28;20026;-47